sensor_id;sensor_type;location;lat;lon;timestamp;temperature;humidity
46364;DHT22;32071;49.036;9.344;2023-07-31T00:01:43;14.50;99.90
46364;DHT22;32071;49.036;9.344;2023-07-31T00:04:08;14.40;99.90
46364;DHT22;32071;49.036;9.344;2023-07-31T00:06:34;14.30;99.90
46364;DHT22;32071;49.036;9.344;2023-07-31T00:08:59;14.20;99.90
46364;DHT22;32071;49.036;9.344;2023-07-31T00:11:25;14.20;99.90
46364;DHT22;32071;49.036;9.344;2023-07-31T00:13:53;14.20;99.90
46364;DHT22;32071;49.036;9.344;2023-07-31T00:16:19;14.20;99.90
46364;DHT22;32071;49.036;9.344;2023-07-31T00:18:44;14.20;99.90
46364;DHT22;32071;49.036;9.344;2023-07-31T00:21:10;14.20;99.90
46364;DHT22;32071;49.036;9.344;2023-07-31T00:23:35;14.10;99.90
46364;DHT22;32071;49.036;9.344;2023-07-31T00:26:01;14.10;99.90
46364;DHT22;32071;49.036;9.344;2023-07-31T00:28:27;14.10;99.90
46364;DHT22;32071;49.036;9.344;2023-07-31T00:30:54;14.00;99.90
46364;DHT22;32071;49.036;9.344;2023-07-31T00:33:19;14.00;99.90
46364;DHT22;32071;49.036;9.344;2023-07-31T00:35:45;14.00;99.90
46364;DHT22;32071;49.036;9.344;2023-07-31T00:38:10;14.00;99.90
46364;DHT22;32071;49.036;9.344;2023-07-31T00:40:36;14.00;99.90
46364;DHT22;32071;49.036;9.344;2023-07-31T00:43:03;13.90;99.90
46364;DHT22;32071;49.036;9.344;2023-07-31T00:45:28;13.90;99.90
46364;DHT22;32071;49.036;9.344;2023-07-31T00:47:54;13.90;99.90
46364;DHT22;32071;49.036;9.344;2023-07-31T00:50:20;13.90;99.90
46364;DHT22;32071;49.036;9.344;2023-07-31T00:52:47;13.90;99.90
46364;DHT22;32071;49.036;9.344;2023-07-31T00:55:13;13.90;99.90
46364;DHT22;32071;49.036;9.344;2023-07-31T00:57:41;13.90;99.90
46364;DHT22;32071;49.036;9.344;2023-07-31T01:00:07;13.90;99.90
46364;DHT22;32071;49.036;9.344;2023-07-31T01:02:33;14.00;99.90
46364;DHT22;32071;49.036;9.344;2023-07-31T01:04:59;14.00;99.90
46364;DHT22;32071;49.036;9.344;2023-07-31T01:10:23;14.00;99.90
46364;DHT22;32071;49.036;9.344;2023-07-31T01:12:51;14.00;99.90
46364;DHT22;32071;49.036;9.344;2023-07-31T01:15:18;14.00;99.90
46364;DHT22;32071;49.036;9.344;2023-07-31T01:17:44;14.00;99.90
46364;DHT22;32071;49.036;9.344;2023-07-31T01:20:17;13.90;99.90
46364;DHT22;32071;49.036;9.344;2023-07-31T01:25:56;13.90;99.90
46364;DHT22;32071;49.036;9.344;2023-07-31T01:28:39;13.90;99.90
46364;DHT22;32071;49.036;9.344;2023-07-31T01:31:07;13.90;99.90
46364;DHT22;32071;49.036;9.344;2023-07-31T01:33:34;13.90;99.90
46364;DHT22;32071;49.036;9.344;2023-07-31T01:36:00;13.90;99.90
46364;DHT22;32071;49.036;9.344;2023-07-31T01:38:26;13.90;99.90
46364;DHT22;32071;49.036;9.344;2023-07-31T01:40:52;13.90;99.90
46364;DHT22;32071;49.036;9.344;2023-07-31T01:43:19;13.90;99.90
46364;DHT22;32071;49.036;9.344;2023-07-31T01:45:44;13.90;99.90
46364;DHT22;32071;49.036;9.344;2023-07-31T01:48:10;13.90;99.90
46364;DHT22;32071;49.036;9.344;2023-07-31T01:50:35;14.00;99.90
46364;DHT22;32071;49.036;9.344;2023-07-31T01:53:01;13.90;99.90
46364;DHT22;32071;49.036;9.344;2023-07-31T01:55:26;13.90;99.90
46364;DHT22;32071;49.036;9.344;2023-07-31T01:57:52;14.00;99.90
46364;DHT22;32071;49.036;9.344;2023-07-31T02:00:18;13.90;99.90
46364;DHT22;32071;49.036;9.344;2023-07-31T02:02:43;14.00;99.90
46364;DHT22;32071;49.036;9.344;2023-07-31T02:05:09;13.90;99.90
46364;DHT22;32071;49.036;9.344;2023-07-31T02:07:35;13.90;99.90
46364;DHT22;32071;49.036;9.344;2023-07-31T02:10:00;14.00;99.90
46364;DHT22;32071;49.036;9.344;2023-07-31T02:12:26;14.00;99.90
46364;DHT22;32071;49.036;9.344;2023-07-31T02:14:51;14.00;99.90
46364;DHT22;32071;49.036;9.344;2023-07-31T02:17:17;14.00;99.90
46364;DHT22;32071;49.036;9.344;2023-07-31T02:19:42;14.00;99.90
46364;DHT22;32071;49.036;9.344;2023-07-31T02:22:08;14.00;99.90
46364;DHT22;32071;49.036;9.344;2023-07-31T02:24:34;14.00;99.90
46364;DHT22;32071;49.036;9.344;2023-07-31T02:26:59;14.00;99.90
46364;DHT22;32071;49.036;9.344;2023-07-31T02:29:25;14.00;99.90
46364;DHT22;32071;49.036;9.344;2023-07-31T02:31:50;14.00;99.90
46364;DHT22;32071;49.036;9.344;2023-07-31T02:34:16;14.00;99.90
46364;DHT22;32071;49.036;9.344;2023-07-31T02:36:41;14.10;99.90
46364;DHT22;32071;49.036;9.344;2023-07-31T02:39:07;14.10;99.90
46364;DHT22;32071;49.036;9.344;2023-07-31T02:41:32;14.10;99.90
46364;DHT22;32071;49.036;9.344;2023-07-31T02:43:58;14.20;99.90
46364;DHT22;32071;49.036;9.344;2023-07-31T02:46:24;14.20;99.90
46364;DHT22;32071;49.036;9.344;2023-07-31T02:48:50;14.20;99.90
46364;DHT22;32071;49.036;9.344;2023-07-31T02:51:16;14.30;99.90
46364;DHT22;32071;49.036;9.344;2023-07-31T02:53:41;14.30;99.90
46364;DHT22;32071;49.036;9.344;2023-07-31T02:56:07;14.30;99.90
46364;DHT22;32071;49.036;9.344;2023-07-31T02:58:32;14.40;99.90
46364;DHT22;32071;49.036;9.344;2023-07-31T03:00:58;14.50;99.90
46364;DHT22;32071;49.036;9.344;2023-07-31T03:03:24;14.50;99.90
46364;DHT22;32071;49.036;9.344;2023-07-31T03:05:50;14.40;99.90
46364;DHT22;32071;49.036;9.344;2023-07-31T03:08:15;14.40;99.90
46364;DHT22;32071;49.036;9.344;2023-07-31T03:10:41;14.50;99.90
46364;DHT22;32071;49.036;9.344;2023-07-31T03:13:06;14.40;99.90
46364;DHT22;32071;49.036;9.344;2023-07-31T03:15:32;14.30;99.90
46364;DHT22;32071;49.036;9.344;2023-07-31T03:17:58;14.30;99.90
46364;DHT22;32071;49.036;9.344;2023-07-31T03:20:23;14.30;99.90
46364;DHT22;32071;49.036;9.344;2023-07-31T03:22:49;14.20;99.90
46364;DHT22;32071;49.036;9.344;2023-07-31T03:25:14;14.20;99.90
46364;DHT22;32071;49.036;9.344;2023-07-31T03:27:40;14.10;99.90
46364;DHT22;32071;49.036;9.344;2023-07-31T03:30:06;14.00;99.90
46364;DHT22;32071;49.036;9.344;2023-07-31T03:32:32;14.00;99.90
46364;DHT22;32071;49.036;9.344;2023-07-31T03:34:58;14.00;99.90
46364;DHT22;32071;49.036;9.344;2023-07-31T03:37:23;14.00;99.90
46364;DHT22;32071;49.036;9.344;2023-07-31T03:39:49;13.90;99.90
46364;DHT22;32071;49.036;9.344;2023-07-31T03:42:14;14.00;99.90
46364;DHT22;32071;49.036;9.344;2023-07-31T03:44:40;14.00;99.90
46364;DHT22;32071;49.036;9.344;2023-07-31T03:47:05;13.90;99.90
46364;DHT22;32071;49.036;9.344;2023-07-31T03:49:31;13.80;99.90
46364;DHT22;32071;49.036;9.344;2023-07-31T03:51:57;13.80;99.90
46364;DHT22;32071;49.036;9.344;2023-07-31T03:54:22;13.80;99.90
46364;DHT22;32071;49.036;9.344;2023-07-31T03:56:48;13.80;99.90
46364;DHT22;32071;49.036;9.344;2023-07-31T03:59:13;13.70;99.90
46364;DHT22;32071;49.036;9.344;2023-07-31T04:01:39;13.70;99.90
46364;DHT22;32071;49.036;9.344;2023-07-31T04:04:04;13.70;99.90
46364;DHT22;32071;49.036;9.344;2023-07-31T04:06:30;13.70;99.90
46364;DHT22;32071;49.036;9.344;2023-07-31T04:08:56;13.70;99.90
46364;DHT22;32071;49.036;9.344;2023-07-31T04:11:21;13.70;99.90
46364;DHT22;32071;49.036;9.344;2023-07-31T04:13:47;13.70;99.90
46364;DHT22;32071;49.036;9.344;2023-07-31T04:16:12;13.60;99.90
46364;DHT22;32071;49.036;9.344;2023-07-31T04:18:38;13.60;99.90
46364;DHT22;32071;49.036;9.344;2023-07-31T04:21:04;13.60;99.90
46364;DHT22;32071;49.036;9.344;2023-07-31T04:23:29;13.60;99.90
46364;DHT22;32071;49.036;9.344;2023-07-31T04:25:55;13.60;99.90
46364;DHT22;32071;49.036;9.344;2023-07-31T04:28:21;13.60;99.90
46364;DHT22;32071;49.036;9.344;2023-07-31T04:30:47;13.60;99.90
46364;DHT22;32071;49.036;9.344;2023-07-31T04:33:12;13.60;99.90
46364;DHT22;32071;49.036;9.344;2023-07-31T04:35:38;13.60;99.90
46364;DHT22;32071;49.036;9.344;2023-07-31T04:38:04;13.70;99.90
46364;DHT22;32071;49.036;9.344;2023-07-31T04:40:29;13.70;99.90
46364;DHT22;32071;49.036;9.344;2023-07-31T04:42:55;13.80;99.90
46364;DHT22;32071;49.036;9.344;2023-07-31T04:45:20;13.80;99.90
46364;DHT22;32071;49.036;9.344;2023-07-31T04:47:46;13.90;99.90
46364;DHT22;32071;49.036;9.344;2023-07-31T04:50:11;14.00;99.90
46364;DHT22;32071;49.036;9.344;2023-07-31T04:52:37;14.00;99.90
46364;DHT22;32071;49.036;9.344;2023-07-31T04:55:03;14.00;99.90
46364;DHT22;32071;49.036;9.344;2023-07-31T04:57:28;14.10;99.90
46364;DHT22;32071;49.036;9.344;2023-07-31T04:59:54;14.20;99.90
46364;DHT22;32071;49.036;9.344;2023-07-31T05:02:19;14.20;99.90
46364;DHT22;32071;49.036;9.344;2023-07-31T05:04:45;14.30;99.90
46364;DHT22;32071;49.036;9.344;2023-07-31T05:07:11;14.40;99.90
46364;DHT22;32071;49.036;9.344;2023-07-31T05:09:36;14.50;99.90
46364;DHT22;32071;49.036;9.344;2023-07-31T05:12:04;14.60;99.90
46364;DHT22;32071;49.036;9.344;2023-07-31T05:14:29;14.70;99.90
46364;DHT22;32071;49.036;9.344;2023-07-31T05:16:55;14.80;99.90
46364;DHT22;32071;49.036;9.344;2023-07-31T05:19:20;14.80;99.90
46364;DHT22;32071;49.036;9.344;2023-07-31T05:21:46;14.90;99.90
46364;DHT22;32071;49.036;9.344;2023-07-31T05:24:11;14.90;99.90
46364;DHT22;32071;49.036;9.344;2023-07-31T05:26:37;15.00;99.90
46364;DHT22;32071;49.036;9.344;2023-07-31T05:29:03;15.00;99.90
46364;DHT22;32071;49.036;9.344;2023-07-31T05:31:29;15.10;99.90
46364;DHT22;32071;49.036;9.344;2023-07-31T05:33:54;15.20;99.90
46364;DHT22;32071;49.036;9.344;2023-07-31T05:36:20;15.20;99.90
46364;DHT22;32071;49.036;9.344;2023-07-31T05:38:45;15.30;99.90
46364;DHT22;32071;49.036;9.344;2023-07-31T05:41:12;15.30;99.90
46364;DHT22;32071;49.036;9.344;2023-07-31T05:43:37;15.30;99.90
46364;DHT22;32071;49.036;9.344;2023-07-31T05:46:03;15.50;99.90
46364;DHT22;32071;49.036;9.344;2023-07-31T05:48:28;15.60;99.90
46364;DHT22;32071;49.036;9.344;2023-07-31T05:50:54;15.60;99.90
46364;DHT22;32071;49.036;9.344;2023-07-31T05:53:20;15.60;99.90
46364;DHT22;32071;49.036;9.344;2023-07-31T05:55:45;15.70;99.90
46364;DHT22;32071;49.036;9.344;2023-07-31T05:58:11;15.70;99.90
46364;DHT22;32071;49.036;9.344;2023-07-31T06:00:36;15.80;99.90
46364;DHT22;32071;49.036;9.344;2023-07-31T06:03:02;15.90;99.90
46364;DHT22;32071;49.036;9.344;2023-07-31T06:05:28;16.00;99.90
46364;DHT22;32071;49.036;9.344;2023-07-31T06:07:55;16.10;99.90
46364;DHT22;32071;49.036;9.344;2023-07-31T06:10:20;16.20;99.90
46364;DHT22;32071;49.036;9.344;2023-07-31T06:12:46;16.40;99.90
46364;DHT22;32071;49.036;9.344;2023-07-31T06:15:12;16.50;99.90
46364;DHT22;32071;49.036;9.344;2023-07-31T06:17:38;16.60;99.90
46364;DHT22;32071;49.036;9.344;2023-07-31T06:20:04;16.80;99.90
46364;DHT22;32071;49.036;9.344;2023-07-31T06:22:32;16.80;99.90
46364;DHT22;32071;49.036;9.344;2023-07-31T06:24:58;16.90;99.90
46364;DHT22;32071;49.036;9.344;2023-07-31T06:27:24;17.00;99.90
46364;DHT22;32071;49.036;9.344;2023-07-31T06:29:49;17.20;99.90
46364;DHT22;32071;49.036;9.344;2023-07-31T06:32:15;17.30;99.90
46364;DHT22;32071;49.036;9.344;2023-07-31T06:34:41;17.50;99.90
46364;DHT22;32071;49.036;9.344;2023-07-31T06:37:06;17.60;99.90
46364;DHT22;32071;49.036;9.344;2023-07-31T06:39:32;17.80;99.90
46364;DHT22;32071;49.036;9.344;2023-07-31T06:41:57;18.00;99.90
46364;DHT22;32071;49.036;9.344;2023-07-31T06:44:23;18.10;99.90
46364;DHT22;32071;49.036;9.344;2023-07-31T06:46:49;18.20;99.90
46364;DHT22;32071;49.036;9.344;2023-07-31T06:49:14;18.30;99.90
46364;DHT22;32071;49.036;9.344;2023-07-31T06:51:43;18.40;99.90
46364;DHT22;32071;49.036;9.344;2023-07-31T06:54:09;18.50;99.90
46364;DHT22;32071;49.036;9.344;2023-07-31T06:56:35;18.60;99.90
46364;DHT22;32071;49.036;9.344;2023-07-31T06:59:00;18.80;99.90
46364;DHT22;32071;49.036;9.344;2023-07-31T07:01:26;19.00;99.90
46364;DHT22;32071;49.036;9.344;2023-07-31T07:03:53;19.20;99.90
46364;DHT22;32071;49.036;9.344;2023-07-31T07:06:18;19.40;99.90
46364;DHT22;32071;49.036;9.344;2023-07-31T07:08:44;19.60;99.90
46364;DHT22;32071;49.036;9.344;2023-07-31T07:11:10;19.70;99.90
46364;DHT22;32071;49.036;9.344;2023-07-31T07:13:36;19.80;99.90
46364;DHT22;32071;49.036;9.344;2023-07-31T07:16:01;19.70;99.90
46364;DHT22;32071;49.036;9.344;2023-07-31T07:18:27;19.70;99.90
46364;DHT22;32071;49.036;9.344;2023-07-31T07:20:54;19.70;99.90
46364;DHT22;32071;49.036;9.344;2023-07-31T07:23:20;19.60;99.90
46364;DHT22;32071;49.036;9.344;2023-07-31T07:25:46;19.70;99.90
46364;DHT22;32071;49.036;9.344;2023-07-31T07:28:12;19.60;99.90
46364;DHT22;32071;49.036;9.344;2023-07-31T07:30:38;19.60;99.90
46364;DHT22;32071;49.036;9.344;2023-07-31T07:33:03;19.60;99.90
46364;DHT22;32071;49.036;9.344;2023-07-31T07:35:29;19.60;99.90
46364;DHT22;32071;49.036;9.344;2023-07-31T07:37:55;19.70;99.90
46364;DHT22;32071;49.036;9.344;2023-07-31T07:40:21;19.80;99.90
46364;DHT22;32071;49.036;9.344;2023-07-31T07:42:46;19.80;99.90
46364;DHT22;32071;49.036;9.344;2023-07-31T07:45:12;19.90;99.90
46364;DHT22;32071;49.036;9.344;2023-07-31T07:47:40;19.90;99.90
46364;DHT22;32071;49.036;9.344;2023-07-31T07:50:06;19.90;99.90
46364;DHT22;32071;49.036;9.344;2023-07-31T07:52:32;19.90;99.90
46364;DHT22;32071;49.036;9.344;2023-07-31T07:54:57;20.10;99.90
46364;DHT22;32071;49.036;9.344;2023-07-31T07:57:23;20.20;99.90
46364;DHT22;32071;49.036;9.344;2023-07-31T07:59:48;20.40;99.90
46364;DHT22;32071;49.036;9.344;2023-07-31T08:02:14;20.40;99.90
46364;DHT22;32071;49.036;9.344;2023-07-31T08:04:39;20.60;99.90
46364;DHT22;32071;49.036;9.344;2023-07-31T08:07:05;20.60;99.90
46364;DHT22;32071;49.036;9.344;2023-07-31T08:09:31;20.60;99.90
46364;DHT22;32071;49.036;9.344;2023-07-31T08:11:56;20.50;99.90
46364;DHT22;32071;49.036;9.344;2023-07-31T08:14:27;20.80;99.90
46364;DHT22;32071;49.036;9.344;2023-07-31T08:16:53;21.00;99.90
46364;DHT22;32071;49.036;9.344;2023-07-31T08:19:18;21.00;99.90
46364;DHT22;32071;49.036;9.344;2023-07-31T08:21:44;21.00;99.90
46364;DHT22;32071;49.036;9.344;2023-07-31T08:24:09;21.10;99.90
46364;DHT22;32071;49.036;9.344;2023-07-31T08:26:35;21.10;99.90
46364;DHT22;32071;49.036;9.344;2023-07-31T08:29:01;21.20;99.90
46364;DHT22;32071;49.036;9.344;2023-07-31T08:31:26;21.20;99.90
46364;DHT22;32071;49.036;9.344;2023-07-31T08:33:52;21.20;99.90
46364;DHT22;32071;49.036;9.344;2023-07-31T08:36:18;21.20;99.90
46364;DHT22;32071;49.036;9.344;2023-07-31T08:38:45;21.20;99.90
46364;DHT22;32071;49.036;9.344;2023-07-31T08:41:11;21.30;99.90
46364;DHT22;32071;49.036;9.344;2023-07-31T08:43:38;21.40;99.90
46364;DHT22;32071;49.036;9.344;2023-07-31T08:46:05;21.30;99.90
46364;DHT22;32071;49.036;9.344;2023-07-31T08:48:31;21.50;99.90
46364;DHT22;32071;49.036;9.344;2023-07-31T08:50:57;21.60;99.90
46364;DHT22;32071;49.036;9.344;2023-07-31T08:53:23;21.60;99.90
46364;DHT22;32071;49.036;9.344;2023-07-31T08:55:49;21.70;99.90
46364;DHT22;32071;49.036;9.344;2023-07-31T08:58:15;21.60;99.90
46364;DHT22;32071;49.036;9.344;2023-07-31T09:00:41;21.70;99.90
46364;DHT22;32071;49.036;9.344;2023-07-31T09:03:15;21.60;99.90
46364;DHT22;32071;49.036;9.344;2023-07-31T09:05:43;21.50;99.90
46364;DHT22;32071;49.036;9.344;2023-07-31T09:08:09;21.60;99.90
46364;DHT22;32071;49.036;9.344;2023-07-31T09:10:43;21.60;99.90
46364;DHT22;32071;49.036;9.344;2023-07-31T09:13:09;21.60;99.90
46364;DHT22;32071;49.036;9.344;2023-07-31T09:15:36;21.60;99.90
46364;DHT22;32071;49.036;9.344;2023-07-31T09:18:03;21.70;99.90
46364;DHT22;32071;49.036;9.344;2023-07-31T09:20:29;21.90;99.90
46364;DHT22;32071;49.036;9.344;2023-07-31T09:22:55;21.70;99.90
46364;DHT22;32071;49.036;9.344;2023-07-31T09:25:26;21.70;99.90
46364;DHT22;32071;49.036;9.344;2023-07-31T09:28:02;21.90;99.90
46364;DHT22;32071;49.036;9.344;2023-07-31T09:30:28;22.10;99.90
46364;DHT22;32071;49.036;9.344;2023-07-31T09:33:02;22.20;99.90
46364;DHT22;32071;49.036;9.344;2023-07-31T09:35:29;22.40;99.90
46364;DHT22;32071;49.036;9.344;2023-07-31T09:37:58;22.50;99.90
46364;DHT22;32071;49.036;9.344;2023-07-31T09:40:34;22.50;99.90
46364;DHT22;32071;49.036;9.344;2023-07-31T09:43:02;22.30;99.90
46364;DHT22;32071;49.036;9.344;2023-07-31T09:45:29;22.30;99.90
46364;DHT22;32071;49.036;9.344;2023-07-31T09:47:55;22.10;99.90
46364;DHT22;32071;49.036;9.344;2023-07-31T09:50:22;22.10;99.90
46364;DHT22;32071;49.036;9.344;2023-07-31T09:52:49;22.10;99.90
46364;DHT22;32071;49.036;9.344;2023-07-31T09:55:14;22.10;99.90
46364;DHT22;32071;49.036;9.344;2023-07-31T09:57:41;22.10;99.90
46364;DHT22;32071;49.036;9.344;2023-07-31T10:00:08;22.20;99.90
46364;DHT22;32071;49.036;9.344;2023-07-31T10:02:38;22.30;99.90
46364;DHT22;32071;49.036;9.344;2023-07-31T10:05:05;22.30;99.90
46364;DHT22;32071;49.036;9.344;2023-07-31T10:07:34;22.30;99.90
46364;DHT22;32071;49.036;9.344;2023-07-31T10:10:01;22.20;99.90
46364;DHT22;32071;49.036;9.344;2023-07-31T10:12:29;22.20;99.90
46364;DHT22;32071;49.036;9.344;2023-07-31T10:14:55;22.20;99.90
46364;DHT22;32071;49.036;9.344;2023-07-31T10:17:25;22.40;99.90
46364;DHT22;32071;49.036;9.344;2023-07-31T10:19:51;22.60;99.90
46364;DHT22;32071;49.036;9.344;2023-07-31T10:22:19;22.80;99.90
46364;DHT22;32071;49.036;9.344;2023-07-31T10:24:46;22.80;99.90
46364;DHT22;32071;49.036;9.344;2023-07-31T10:27:12;22.70;99.90
46364;DHT22;32071;49.036;9.344;2023-07-31T10:29:39;22.50;99.90
46364;DHT22;32071;49.036;9.344;2023-07-31T10:32:06;22.40;99.90
46364;DHT22;32071;49.036;9.344;2023-07-31T10:34:35;22.60;99.90
46364;DHT22;32071;49.036;9.344;2023-07-31T10:37:21;22.80;99.90
46364;DHT22;32071;49.036;9.344;2023-07-31T10:40:01;23.00;99.90
46364;DHT22;32071;49.036;9.344;2023-07-31T10:42:33;23.10;99.90
46364;DHT22;32071;49.036;9.344;2023-07-31T10:45:10;23.00;99.90
46364;DHT22;32071;49.036;9.344;2023-07-31T10:47:43;22.80;99.90
46364;DHT22;32071;49.036;9.344;2023-07-31T10:50:19;22.60;99.90
46364;DHT22;32071;49.036;9.344;2023-07-31T10:52:50;22.50;99.90
46364;DHT22;32071;49.036;9.344;2023-07-31T10:55:26;22.40;99.90
46364;DHT22;32071;49.036;9.344;2023-07-31T10:57:53;22.40;99.90
46364;DHT22;32071;49.036;9.344;2023-07-31T11:00:28;22.60;99.90
46364;DHT22;32071;49.036;9.344;2023-07-31T11:03:01;22.80;99.90
46364;DHT22;32071;49.036;9.344;2023-07-31T11:05:46;22.80;99.90
46364;DHT22;32071;49.036;9.344;2023-07-31T11:08:25;22.90;99.90
46364;DHT22;32071;49.036;9.344;2023-07-31T11:11:08;23.00;99.90
46364;DHT22;32071;49.036;9.344;2023-07-31T11:13:46;23.10;99.90
46364;DHT22;32071;49.036;9.344;2023-07-31T11:16:17;23.20;99.90
46364;DHT22;32071;49.036;9.344;2023-07-31T11:18:43;23.20;99.90
46364;DHT22;32071;49.036;9.344;2023-07-31T11:21:19;23.40;99.90
46364;DHT22;32071;49.036;9.344;2023-07-31T11:23:53;23.90;99.90
46364;DHT22;32071;49.036;9.344;2023-07-31T11:26:19;24.00;99.60
46364;DHT22;32071;49.036;9.344;2023-07-31T11:28:49;24.00;99.50
46364;DHT22;32071;49.036;9.344;2023-07-31T11:31:15;24.10;99.90
46364;DHT22;32071;49.036;9.344;2023-07-31T11:33:40;24.10;99.90
46364;DHT22;32071;49.036;9.344;2023-07-31T11:36:06;24.20;99.20
46364;DHT22;32071;49.036;9.344;2023-07-31T11:38:33;24.10;99.00
46364;DHT22;32071;49.036;9.344;2023-07-31T11:41:03;24.10;99.60
46364;DHT22;32071;49.036;9.344;2023-07-31T11:43:30;24.30;99.60
46364;DHT22;32071;49.036;9.344;2023-07-31T11:45:58;24.50;99.70
46364;DHT22;32071;49.036;9.344;2023-07-31T11:48:29;24.40;97.60
46364;DHT22;32071;49.036;9.344;2023-07-31T11:50:57;24.60;98.20
46364;DHT22;32071;49.036;9.344;2023-07-31T11:56:08;24.60;98.50
46364;DHT22;32071;49.036;9.344;2023-07-31T11:58:36;24.40;97.70
46364;DHT22;32071;49.036;9.344;2023-07-31T12:01:02;24.40;97.60
46364;DHT22;32071;49.036;9.344;2023-07-31T12:03:28;24.60;98.80
46364;DHT22;32071;49.036;9.344;2023-07-31T12:05:54;24.90;98.00
46364;DHT22;32071;49.036;9.344;2023-07-31T12:08:24;25.10;97.40
46364;DHT22;32071;49.036;9.344;2023-07-31T12:10:54;25.10;96.80
46364;DHT22;32071;49.036;9.344;2023-07-31T12:13:25;25.00;97.10
46364;DHT22;32071;49.036;9.344;2023-07-31T12:16:01;24.90;97.60
46364;DHT22;32071;49.036;9.344;2023-07-31T12:18:30;25.20;97.10
46364;DHT22;32071;49.036;9.344;2023-07-31T12:21:00;25.20;96.60
46364;DHT22;32071;49.036;9.344;2023-07-31T12:23:28;25.10;97.10
46364;DHT22;32071;49.036;9.344;2023-07-31T12:26:10;25.10;98.10
46364;DHT22;32071;49.036;9.344;2023-07-31T12:31:05;24.30;97.20
46364;DHT22;32071;49.036;9.344;2023-07-31T12:33:33;24.10;97.60
46364;DHT22;32071;49.036;9.344;2023-07-31T12:36:01;24.00;97.90
46364;DHT22;32071;49.036;9.344;2023-07-31T12:38:27;23.90;98.00
46364;DHT22;32071;49.036;9.344;2023-07-31T12:40:52;23.70;98.00
46364;DHT22;32071;49.036;9.344;2023-07-31T12:43:18;23.50;98.40
46364;DHT22;32071;49.036;9.344;2023-07-31T12:45:43;23.40;98.10
46364;DHT22;32071;49.036;9.344;2023-07-31T12:48:09;23.40;98.90
46364;DHT22;32071;49.036;9.344;2023-07-31T12:50:35;23.50;98.40
46364;DHT22;32071;49.036;9.344;2023-07-31T12:53:02;23.30;98.50
46364;DHT22;32071;49.036;9.344;2023-07-31T12:55:28;23.30;99.60
46364;DHT22;32071;49.036;9.344;2023-07-31T12:57:55;23.30;99.20
46364;DHT22;32071;49.036;9.344;2023-07-31T13:00:21;23.20;98.70
46364;DHT22;32071;49.036;9.344;2023-07-31T13:02:47;23.20;99.10
46364;DHT22;32071;49.036;9.344;2023-07-31T13:05:12;23.10;98.20
46364;DHT22;32071;49.036;9.344;2023-07-31T13:07:39;23.00;98.50
46364;DHT22;32071;49.036;9.344;2023-07-31T13:10:06;22.90;99.30
46364;DHT22;32071;49.036;9.344;2023-07-31T13:12:31;23.00;98.70
46364;DHT22;32071;49.036;9.344;2023-07-31T13:14:57;23.10;98.90
46364;DHT22;32071;49.036;9.344;2023-07-31T13:17:23;23.00;99.00
46364;DHT22;32071;49.036;9.344;2023-07-31T13:19:48;22.80;98.90
46364;DHT22;32071;49.036;9.344;2023-07-31T13:22:14;22.70;99.70
46364;DHT22;32071;49.036;9.344;2023-07-31T13:24:39;22.70;99.60
46364;DHT22;32071;49.036;9.344;2023-07-31T13:27:05;22.60;98.80
46364;DHT22;32071;49.036;9.344;2023-07-31T13:29:31;22.60;99.20
46364;DHT22;32071;49.036;9.344;2023-07-31T13:31:57;22.60;99.80
46364;DHT22;32071;49.036;9.344;2023-07-31T13:34:23;22.70;99.90
46364;DHT22;32071;49.036;9.344;2023-07-31T13:36:49;22.90;99.70
46364;DHT22;32071;49.036;9.344;2023-07-31T13:39:14;23.00;98.80
46364;DHT22;32071;49.036;9.344;2023-07-31T13:41:41;23.30;99.00
46364;DHT22;32071;49.036;9.344;2023-07-31T13:44:06;23.50;99.40
46364;DHT22;32071;49.036;9.344;2023-07-31T13:46:32;23.40;99.00
46364;DHT22;32071;49.036;9.344;2023-07-31T13:48:58;23.40;99.60
46364;DHT22;32071;49.036;9.344;2023-07-31T13:51:25;23.30;98.90
46364;DHT22;32071;49.036;9.344;2023-07-31T13:53:51;23.30;99.60
46364;DHT22;32071;49.036;9.344;2023-07-31T13:56:16;23.30;99.50
46364;DHT22;32071;49.036;9.344;2023-07-31T13:58:42;23.30;99.60
46364;DHT22;32071;49.036;9.344;2023-07-31T14:01:07;23.50;99.20
46364;DHT22;32071;49.036;9.344;2023-07-31T14:03:33;23.50;99.70
46364;DHT22;32071;49.036;9.344;2023-07-31T14:05:58;23.60;99.60
46364;DHT22;32071;49.036;9.344;2023-07-31T14:08:24;23.70;99.30
46364;DHT22;32071;49.036;9.344;2023-07-31T14:10:50;23.60;98.80
46364;DHT22;32071;49.036;9.344;2023-07-31T14:13:15;23.60;99.60
46364;DHT22;32071;49.036;9.344;2023-07-31T14:15:42;23.70;99.70
46364;DHT22;32071;49.036;9.344;2023-07-31T14:18:08;23.60;99.80
46364;DHT22;32071;49.036;9.344;2023-07-31T14:20:34;23.60;99.40
46364;DHT22;32071;49.036;9.344;2023-07-31T14:23:00;23.50;99.30
46364;DHT22;32071;49.036;9.344;2023-07-31T14:25:26;23.40;99.40
46364;DHT22;32071;49.036;9.344;2023-07-31T14:27:52;23.30;99.00
46364;DHT22;32071;49.036;9.344;2023-07-31T14:30:17;23.30;99.50
46364;DHT22;32071;49.036;9.344;2023-07-31T14:32:43;23.30;99.60
46364;DHT22;32071;49.036;9.344;2023-07-31T14:35:09;23.20;99.70
46364;DHT22;32071;49.036;9.344;2023-07-31T14:37:42;23.30;99.90
46364;DHT22;32071;49.036;9.344;2023-07-31T14:40:09;23.50;99.90
46364;DHT22;32071;49.036;9.344;2023-07-31T14:42:35;23.60;99.90
46364;DHT22;32071;49.036;9.344;2023-07-31T14:45:01;23.40;99.90
46364;DHT22;32071;49.036;9.344;2023-07-31T14:47:27;23.40;99.10
46364;DHT22;32071;49.036;9.344;2023-07-31T14:49:53;23.40;99.50
46364;DHT22;32071;49.036;9.344;2023-07-31T14:52:18;23.50;99.60
46364;DHT22;32071;49.036;9.344;2023-07-31T14:54:45;23.50;99.90
46364;DHT22;32071;49.036;9.344;2023-07-31T14:57:11;23.40;99.40
46364;DHT22;32071;49.036;9.344;2023-07-31T14:59:36;23.20;99.20
46364;DHT22;32071;49.036;9.344;2023-07-31T15:02:02;23.00;99.90
46364;DHT22;32071;49.036;9.344;2023-07-31T15:04:28;23.00;99.80
46364;DHT22;32071;49.036;9.344;2023-07-31T15:06:54;22.90;99.70
46364;DHT22;32071;49.036;9.344;2023-07-31T15:09:20;22.80;99.60
46364;DHT22;32071;49.036;9.344;2023-07-31T15:11:45;22.80;99.60
46364;DHT22;32071;49.036;9.344;2023-07-31T15:14:11;22.70;99.10
46364;DHT22;32071;49.036;9.344;2023-07-31T15:16:37;22.70;99.50
46364;DHT22;32071;49.036;9.344;2023-07-31T15:19:02;22.70;99.60
46364;DHT22;32071;49.036;9.344;2023-07-31T15:21:28;22.70;99.90
46364;DHT22;32071;49.036;9.344;2023-07-31T15:23:53;22.60;99.30
46364;DHT22;32071;49.036;9.344;2023-07-31T15:26:19;22.50;99.80
46364;DHT22;32071;49.036;9.344;2023-07-31T15:28:49;22.50;99.90
46364;DHT22;32071;49.036;9.344;2023-07-31T15:31:15;22.60;99.90
46364;DHT22;32071;49.036;9.344;2023-07-31T15:33:41;22.70;99.90
46364;DHT22;32071;49.036;9.344;2023-07-31T15:36:06;22.80;99.90
46364;DHT22;32071;49.036;9.344;2023-07-31T15:38:32;23.00;99.90